Time,TemperatureF,DewpointF,PressureIn,WindDirection,WindDirectionDegrees,WindSpeedMPH,WindSpeedGustMPH,Humidity,HourlyPrecipIn,Conditions,Clouds,dailyrainin,SolarRadiationWatts/m^2,SoftwareType,DateUTC
2013-02-23 00:11:00,49.2,47.0,30.24,West,281,9.0,12.0,93,0.00,,,0.00,0,weatherlink.com 1.10,2013-02-23 08:11:00,
2013-02-23 00:26:00,49.4,48.0,30.24,WNW,287,6.0,14.0,93,0.00,,,0.00,0,weatherlink.com 1.10,2013-02-23 08:26:00,
2013-02-23 00:43:00,49.6,48.0,30.24,West,263,7.0,16.0,93,0.00,,,0.00,0,weatherlink.com 1.10,2013-02-23 08:43:00,
2013-02-23 00:57:00,49.6,48.0,30.23,West,279,9.0,14.0,93,0.00,,,0.00,0,weatherlink.com 1.10,2013-02-23 08:57:00,
2013-02-23 01:12:00,49.6,48.0,30.23,NNW,331,5.0,9.0,94,0.00,,,0.00,0,weatherlink.com 1.10,2013-02-23 09:12:00,
2013-02-23 01:28:00,49.7,48.0,30.23,West,277,4.0,11.0,94,0.00,,,0.00,0,weatherlink.com 1.10,2013-02-23 09:28:00,
2013-02-23 01:43:00,49.5,48.0,30.23,WNW,300,4.0,9.0,95,0.00,,,0.00,0,weatherlink.com 1.10,2013-02-23 09:43:00,
2013-02-23 01:57:00,49.5,48.0,30.22,WNW,296,7.0,7.0,96,0.00,,,0.00,0,weatherlink.com 1.10,2013-02-23 09:57:00,
2013-02-23 02:12:00,49.1,48.0,30.22,WNW,287,2.0,7.0,96,0.01,,,0.01,0,weatherlink.com 1.10,2013-02-23 10:12:00,
2013-02-23 02:28:00,49.2,48.0,30.21,NW,311,5.0,6.0,97,0.01,,,0.01,0,weatherlink.com 1.10,2013-02-23 10:28:00,
2013-02-23 02:42:00,49.0,48.0,30.21,West,276,5.0,7.0,97,0.01,,,0.01,0,weatherlink.com 1.10,2013-02-23 10:42:00,
2013-02-23 02:59:00,49.4,49.0,30.20,West,264,6.0,15.0,97,0.01,,,0.01,0,weatherlink.com 1.10,2013-02-23 10:59:00,
2013-02-23 03:13:00,49.3,49.0,30.21,NW,304,5.0,23.0,98,0.00,,,0.01,0,weatherlink.com 1.10,2013-02-23 11:13:00,
2013-02-23 03:29:00,48.8,48.0,30.20,WNW,301,11.0,18.0,97,0.00,,,0.01,0,weatherlink.com 1.10,2013-02-23 11:29:00,
2013-02-23 03:43:00,48.8,48.0,30.20,WNW,302,15.0,19.0,97,0.00,,,0.01,0,weatherlink.com 1.10,2013-02-23 11:43:00,
2013-02-23 03:59:00,48.6,48.0,30.20,NNW,346,8.0,22.0,97,0.00,,,0.01,0,weatherlink.com 1.10,2013-02-23 11:59:00,
2013-02-23 04:13:00,48.7,48.0,30.20,WNW,299,0.0,10.0,97,0.00,,,0.01,0,weatherlink.com 1.10,2013-02-23 12:13:00,
2013-02-23 04:29:00,47.9,47.0,30.20,NW,323,5.0,9.0,97,0.00,,,0.01,0,weatherlink.com 1.10,2013-02-23 12:29:00,
2013-02-23 04:43:00,47.8,47.0,30.20,NNW,348,5.0,10.0,97,0.00,,,0.01,0,weatherlink.com 1.10,2013-02-23 12:43:00,
2013-02-23 05:00:00,47.2,46.0,30.21,NW,325,0.0,7.0,97,0.00,,,0.01,0,weatherlink.com 1.10,2013-02-23 13:00:00,
2013-02-23 05:15:00,46.5,46.0,30.21,NNW,334,2.0,7.0,96,0.00,,,0.01,0,weatherlink.com 1.10,2013-02-23 13:15:00,
2013-02-23 05:29:00,46.3,45.0,30.22,NW,323,4.0,13.0,96,0.00,,,0.01,0,weatherlink.com 1.10,2013-02-23 13:29:00,
2013-02-23 05:45:00,46.3,45.0,30.23,NNE,19,4.0,11.0,95,0.00,,,0.01,0,weatherlink.com 1.10,2013-02-23 13:45:00,
2013-02-23 05:59:00,46.2,45.0,30.23,NNW,331,6.0,9.0,95,0.00,,,0.01,0,weatherlink.com 1.10,2013-02-23 13:59:00,
2013-02-23 06:15:00,46.3,45.0,30.24,NNW,327,4.0,9.0,94,0.00,,,0.01,0,weatherlink.com 1.10,2013-02-23 14:15:00,
2013-02-23 06:29:00,46.2,44.0,30.25,NW,315,5.0,10.0,93,0.00,,,0.01,0,weatherlink.com 1.10,2013-02-23 14:29:00,
2013-02-23 06:45:00,46.2,44.0,30.25,West,267,5.0,11.0,92,0.00,,,0.01,0,weatherlink.com 1.10,2013-02-23 14:45:00,
2013-02-23 06:59:00,46.3,44.0,30.25,NW,313,8.0,15.0,91,0.00,,,0.01,9,weatherlink.com 1.10,2013-02-23 14:59:00,
2013-02-23 07:16:00,46.6,44.0,30.25,NNW,338,3.0,14.0,90,0.00,,,0.01,19,weatherlink.com 1.10,2013-02-23 15:16:00,
2013-02-23 07:31:00,46.9,44.0,30.25,WNW,293,9.0,19.0,88,0.00,,,0.01,28,weatherlink.com 1.10,2013-02-23 15:31:00,
2013-02-23 07:46:00,47.5,43.0,30.26,NW,307,9.0,19.0,85,0.00,,,0.01,118,weatherlink.com 1.10,2013-02-23 15:46:00,
2013-02-23 08:01:00,48.6,42.0,30.27,WNW,294,5.0,25.0,78,0.00,,,0.01,181,weatherlink.com 1.10,2013-02-23 16:01:00,
2013-02-23 08:15:00,49.4,43.0,30.27,NNW,336,4.0,9.0,79,0.00,,,0.01,243,weatherlink.com 1.10,2013-02-23 16:15:00,
2013-02-23 08:30:00,50.1,42.0,30.27,NNW,339,6.0,14.0,73,0.00,,,0.01,294,weatherlink.com 1.10,2013-02-23 16:30:00,
2013-02-23 08:46:00,50.7,42.0,30.27,WNW,302,8.0,13.0,73,0.00,,,0.01,334,weatherlink.com 1.10,2013-02-23 16:46:00,
2013-02-23 09:02:00,50.8,42.0,30.27,NNW,347,8.0,21.0,72,0.00,,,0.01,383,weatherlink.com 1.10,2013-02-23 17:02:00,
2013-02-23 09:17:00,51.2,42.0,30.28,WNW,302,11.0,16.0,71,0.00,,,0.01,425,weatherlink.com 1.10,2013-02-23 17:17:00,
2013-02-23 09:31:00,51.1,42.0,30.27,North,351,6.0,19.0,71,0.00,,,0.01,466,weatherlink.com 1.10,2013-02-23 17:31:00,
2013-02-23 09:46:00,51.8,41.0,30.27,West,274,3.0,15.0,67,0.00,,,0.01,520,weatherlink.com 1.10,2013-02-23 17:46:00,
2013-02-23 10:01:00,52.4,42.0,30.27,West,273,7.0,15.0,68,0.00,,,0.01,555,weatherlink.com 1.10,2013-02-23 18:01:00,
2013-02-23 10:17:00,52.6,41.0,30.27,NNW,327,2.0,16.0,64,0.00,,,0.01,578,weatherlink.com 1.10,2013-02-23 18:17:00,
2013-02-23 10:33:00,53.5,42.0,30.28,NW,320,10.0,15.0,65,0.00,,,0.01,603,weatherlink.com 1.10,2013-02-23 18:33:00,
2013-02-23 10:47:00,53.1,42.0,30.27,NW,306,4.0,20.0,65,0.00,,,0.01,661,weatherlink.com 1.10,2013-02-23 18:47:00,
2013-02-23 11:03:00,52.3,41.0,30.27,WNW,287,11.0,23.0,66,0.00,,,0.01,656,weatherlink.com 1.10,2013-02-23 19:03:00,
2013-02-23 11:17:00,52.5,41.0,30.27,WNW,293,11.0,23.0,64,0.00,,,0.01,701,weatherlink.com 1.10,2013-02-23 19:17:00,
2013-02-23 11:32:00,53.5,42.0,30.26,WNW,293,20.0,23.0,66,0.00,,,0.01,710,weatherlink.com 1.10,2013-02-23 19:32:00,
2013-02-23 11:47:00,53.5,42.0,30.26,West,276,9.0,28.0,66,0.00,,,0.01,698,weatherlink.com 1.10,2013-02-23 19:47:00,
2013-02-23 12:03:00,53.5,44.0,30.26,West,273,12.0,27.0,69,0.00,,,0.01,722,weatherlink.com 1.10,2013-02-23 20:03:00,
2013-02-23 12:17:00,53.9,44.0,30.26,NW,321,11.0,30.0,70,0.00,,,0.01,715,weatherlink.com 1.10,2013-02-23 20:17:00,
2013-02-23 12:33:00,53.5,44.0,30.26,North,355,5.0,24.0,71,0.00,,,0.01,712,weatherlink.com 1.10,2013-02-23 20:33:00,
2013-02-23 12:48:00,52.7,43.0,30.25,West,271,10.0,28.0,69,0.00,,,0.01,719,weatherlink.com 1.10,2013-02-23 20:48:00,
2013-02-23 13:03:00,52.9,43.0,30.24,SW,223,5.0,29.0,70,0.00,,,0.01,701,weatherlink.com 1.10,2013-02-23 21:03:00,
2013-02-23 13:18:00,52.9,43.0,30.23,WNW,295,11.0,30.0,70,0.00,,,0.01,693,weatherlink.com 1.10,2013-02-23 21:18:00,
2013-02-23 13:34:00,52.6,43.0,30.23,WSW,248,11.0,31.0,71,0.00,,,0.01,673,weatherlink.com 1.10,2013-02-23 21:34:00,
2013-02-23 13:48:00,52.2,43.0,30.23,NW,315,24.0,31.0,72,0.00,,,0.01,654,weatherlink.com 1.10,2013-02-23 21:48:00,
2013-02-23 14:03:00,52.1,44.0,30.22,NW,305,12.0,29.0,74,0.00,,,0.01,626,weatherlink.com 1.10,2013-02-23 22:03:00,
2013-02-23 14:18:00,53.2,45.0,30.21,West,264,9.0,29.0,73,0.00,,,0.01,589,weatherlink.com 1.10,2013-02-23 22:18:00,
2013-02-23 14:34:00,53.0,44.0,30.21,West,267,18.0,29.0,72,0.00,,,0.01,570,weatherlink.com 1.10,2013-02-23 22:34:00,
2013-02-23 14:48:00,52.5,44.0,30.21,WNW,300,24.0,31.0,74,0.00,,,0.01,527,weatherlink.com 1.10,2013-02-23 22:48:00,
2013-02-23 15:03:00,52.6,44.0,30.21,WNW,298,15.0,24.0,73,0.00,,,0.01,489,weatherlink.com 1.10,2013-02-23 23:03:00,
2013-02-23 15:19:00,52.4,45.0,30.21,NNE,13,7.0,26.0,75,0.00,,,0.01,446,weatherlink.com 1.10,2013-02-23 23:19:00,
2013-02-23 15:35:00,52.4,45.0,30.21,NNW,333,5.0,31.0,75,0.00,,,0.01,406,weatherlink.com 1.10,2013-02-23 23:35:00,
2013-02-23 15:49:00,52.3,45.0,30.20,NNW,333,7.0,24.0,76,0.00,,,0.01,364,weatherlink.com 1.10,2013-02-23 23:49:00,
2013-02-23 16:19:00,51.5,45.0,30.20,NW,321,4.0,25.0,77,0.00,,,0.01,271,weatherlink.com 1.10,2013-02-24 00:19:00,
2013-02-23 16:35:00,51.6,45.0,30.21,NW,326,18.0,26.0,77,0.00,,,0.01,209,weatherlink.com 1.10,2013-02-24 00:35:00,
2013-02-23 16:49:00,51.2,45.0,30.21,WNW,302,18.0,24.0,78,0.00,,,0.01,141,weatherlink.com 1.10,2013-02-24 00:49:00,
2013-02-23 17:04:00,50.7,44.0,30.21,WNW,286,13.0,23.0,79,0.00,,,0.01,74,weatherlink.com 1.10,2013-02-24 01:04:00,
2013-02-23 17:19:00,49.9,44.0,30.21,NNW,336,9.0,26.0,80,0.00,,,0.01,35,weatherlink.com 1.10,2013-02-24 01:19:00,
2013-02-23 17:34:00,49.1,43.0,30.22,NW,309,8.0,26.0,80,0.00,,,0.01,23,weatherlink.com 1.10,2013-02-24 01:34:00,
2013-02-23 17:50:00,48.9,43.0,30.22,NW,310,6.0,20.0,81,0.00,,,0.01,11,weatherlink.com 1.10,2013-02-24 01:50:00,
2013-02-23 18:05:00,48.7,43.0,30.22,North,349,4.0,19.0,81,0.00,,,0.01,0,weatherlink.com 1.10,2013-02-24 02:05:00,
2013-02-23 18:21:00,48.5,43.0,30.22,NW,316,6.0,14.0,82,0.00,,,0.01,0,weatherlink.com 1.10,2013-02-24 02:21:00,
2013-02-23 18:35:00,48.3,43.0,30.23,WNW,301,5.0,16.0,83,0.00,,,0.01,0,weatherlink.com 1.10,2013-02-24 02:35:00,
2013-02-23 18:50:00,48.3,43.0,30.24,NW,323,6.0,14.0,83,0.00,,,0.01,0,weatherlink.com 1.10,2013-02-24 02:50:00,
2013-02-23 19:05:00,47.9,43.0,30.24,North,5,2.0,9.0,84,0.00,,,0.01,0,weatherlink.com 1.10,2013-02-24 03:05:00,
2013-02-23 19:21:00,47.8,44.0,30.24,WNW,294,4.0,11.0,85,0.00,,,0.01,0,weatherlink.com 1.10,2013-02-24 03:21:00,
2013-02-23 19:36:00,47.5,44.0,30.24,WNW,301,1.0,8.0,86,0.00,,,0.01,0,weatherlink.com 1.10,2013-02-24 03:36:00,
2013-02-23 19:51:00,46.6,43.0,30.24,North,5,0.0,5.0,87,0.00,,,0.01,0,weatherlink.com 1.10,2013-02-24 03:51:00,
2013-02-23 20:06:00,46.1,42.0,30.24,NNE,24,4.0,4.0,86,0.00,,,0.01,0,weatherlink.com 1.10,2013-02-24 04:06:00,
2013-02-23 20:21:00,46.0,41.0,30.24,NE,53,2.0,5.0,84,0.00,,,0.01,0,weatherlink.com 1.10,2013-02-24 04:21:00,
2013-02-23 20:37:00,45.8,41.0,30.25,NE,53,0.0,2.0,83,0.00,,,0.01,0,weatherlink.com 1.10,2013-02-24 04:37:00,
2013-02-23 20:52:00,44.8,40.0,30.25,NNE,14,2.0,4.0,83,0.00,,,0.01,0,weatherlink.com 1.10,2013-02-24 04:52:00,
2013-02-23 21:06:00,45.6,39.0,30.25,NE,46,0.0,6.0,79,0.00,,,0.01,0,weatherlink.com 1.10,2013-02-24 05:06:00,
2013-02-23 21:21:00,44.1,39.0,30.26,NNE,33,0.0,5.0,81,0.00,,,0.01,0,weatherlink.com 1.10,2013-02-24 05:21:00,
2013-02-23 21:37:00,44.3,39.0,30.26,NNE,33,0.0,4.0,83,0.00,,,0.01,0,weatherlink.com 1.10,2013-02-24 05:37:00,
2013-02-23 21:52:00,44.5,39.0,30.26,NNE,33,1.0,2.0,81,0.00,,,0.01,0,weatherlink.com 1.10,2013-02-24 05:52:00,
2013-02-23 22:07:00,44.4,39.0,30.27,ENE,78,5.0,6.0,80,0.00,,,0.01,0,weatherlink.com 1.10,2013-02-24 06:07:00,
2013-02-23 22:21:00,43.9,39.0,30.27,ENE,57,4.0,5.0,82,0.00,,,0.01,0,weatherlink.com 1.10,2013-02-24 06:21:00,
2013-02-23 22:38:00,44.3,39.0,30.27,NNE,27,1.0,5.0,80,0.00,,,0.01,0,weatherlink.com 1.10,2013-02-24 06:38:00,
2013-02-23 22:53:00,42.9,39.0,30.27,NNE,33,1.0,4.0,85,0.00,,,0.01,0,weatherlink.com 1.10,2013-02-24 06:53:00,
2013-02-23 23:07:00,43.0,39.0,30.26,NNE,33,0.0,2.0,84,0.00,,,0.01,0,weatherlink.com 1.10,2013-02-24 07:07:00,
2013-02-23 23:23:00,42.2,37.0,30.27,NNE,33,0.0,2.0,83,0.00,,,0.01,0,weatherlink.com 1.10,2013-02-24 07:23:00,
2013-02-23 23:38:00,41.9,38.0,30.27,NE,53,5.0,5.0,85,0.00,,,0.01,0,weatherlink.com 1.10,2013-02-24 07:38:00,
2013-02-23 23:53:00,42.3,38.0,30.27,NE,55,4.0,5.0,84,0.00,,,0.01,0,weatherlink.com 1.10,2013-02-24 07:53:00,